sensor_id;sensor_type;location;lat;lon;timestamp;pressure;altitude;pressure_sealevel;temperature;humidity
83200;BME280;73092;49.132;8.920;2024-03-08T00:01:14;99370.81;;;2.38;87.59
83200;BME280;73092;49.132;8.920;2024-03-08T00:03:42;99373.41;;;2.36;87.08
83200;BME280;73092;49.132;8.920;2024-03-08T00:06:07;99371.66;;;2.29;87.30
83200;BME280;73092;49.132;8.920;2024-03-08T00:08:32;99363.00;;;2.24;87.73
83200;BME280;73092;49.132;8.920;2024-03-08T00:10:59;99369.88;;;2.19;87.86
83200;BME280;73092;49.132;8.920;2024-03-08T00:13:24;99364.66;;;2.09;87.90
83200;BME280;73092;49.132;8.920;2024-03-08T00:15:50;99363.81;;;2.09;88.17
83200;BME280;73092;49.132;8.920;2024-03-08T00:18:16;99361.22;;;2.04;88.37
83200;BME280;73092;49.132;8.920;2024-03-08T00:20:41;99359.41;;;1.94;88.61
83200;BME280;73092;49.132;8.920;2024-03-08T00:23:07;99362.00;;;1.94;89.39
83200;BME280;73092;49.132;8.920;2024-03-08T00:25:32;99355.06;;;1.87;89.21
83200;BME280;73092;49.132;8.920;2024-03-08T00:27:59;99358.53;;;1.89;89.39
83200;BME280;73092;49.132;8.920;2024-03-08T00:30:25;99357.66;;;1.87;89.40
83200;BME280;73092;49.132;8.920;2024-03-08T00:32:50;99348.13;;;1.80;89.54
83200;BME280;73092;49.132;8.920;2024-03-08T00:35:16;99352.47;;;1.79;89.90
83200;BME280;73092;49.132;8.920;2024-03-08T00:37:42;99344.66;;;1.75;90.02
83200;BME280;73092;49.132;8.920;2024-03-08T00:40:08;99337.75;;;1.77;89.97
83200;BME280;73092;49.132;8.920;2024-03-08T00:42:36;99347.22;;;1.72;90.19
83200;BME280;73092;49.132;8.920;2024-03-08T00:45:06;99340.28;;;1.68;90.37
83200;BME280;73092;49.132;8.920;2024-03-08T00:47:32;99338.53;;;1.60;90.77
83200;BME280;73092;49.132;8.920;2024-03-08T00:49:58;99340.25;;;1.58;91.09
83200;BME280;73092;49.132;8.920;2024-03-08T00:52:29;99330.72;;;1.51;90.89
83200;BME280;73092;49.132;8.920;2024-03-08T00:54:54;99337.59;;;1.45;91.96
83200;BME280;73092;49.132;8.920;2024-03-08T00:57:20;99339.34;;;1.49;91.46
83200;BME280;73092;49.132;8.920;2024-03-08T00:59:47;99326.34;;;1.47;91.02
83200;BME280;73092;49.132;8.920;2024-03-08T01:02:12;99330.69;;;1.47;91.52
83200;BME280;73092;49.132;8.920;2024-03-08T01:04:37;99323.75;;;1.39;91.04
83200;BME280;73092;49.132;8.920;2024-03-08T01:07:03;99322.84;;;1.33;91.92
83200;BME280;73092;49.132;8.920;2024-03-08T01:09:28;99314.19;;;1.31;91.70
83200;BME280;73092;49.132;8.920;2024-03-08T01:11:54;99313.31;;;1.26;92.25
83200;BME280;73092;49.132;8.920;2024-03-08T01:14:24;99309.88;;;1.34;91.77
83200;BME280;73092;49.132;8.920;2024-03-08T01:16:54;99311.63;;;1.32;90.80
83200;BME280;73092;49.132;8.920;2024-03-08T01:19:20;99314.13;;;1.25;90.72
83200;BME280;73092;49.132;8.920;2024-03-08T01:21:45;99313.25;;;1.17;92.19
83200;BME280;73092;49.132;8.920;2024-03-08T01:24:11;99310.63;;;1.13;92.24
83200;BME280;73092;49.132;8.920;2024-03-08T01:26:36;99301.97;;;1.11;91.78
83200;BME280;73092;49.132;8.920;2024-03-08T01:29:02;99304.63;;;1.16;91.10
83200;BME280;73092;49.132;8.920;2024-03-08T01:31:29;99296.88;;;1.21;91.08
83200;BME280;73092;49.132;8.920;2024-03-08T01:33:56;99295.97;;;1.14;90.97
83200;BME280;73092;49.132;8.920;2024-03-08T01:36:22;99293.31;;;1.06;91.95
83200;BME280;73092;49.132;8.920;2024-03-08T01:38:48;99290.72;;;1.05;92.11
83200;BME280;73092;49.132;8.920;2024-03-08T01:41:13;99285.53;;;1.05;92.46
83200;BME280;73092;49.132;8.920;2024-03-08T01:43:41;99276.88;;;1.03;92.24
83200;BME280;73092;49.132;8.920;2024-03-08T01:46:07;99278.56;;;0.93;91.53
83200;BME280;73092;49.132;8.920;2024-03-08T01:48:34;99276.78;;;0.87;92.81
83200;BME280;73092;49.132;8.920;2024-03-08T01:51:00;99271.59;;;0.87;91.91
83200;BME280;73092;49.132;8.920;2024-03-08T01:53:26;99274.19;;;0.83;92.40
83200;BME280;73092;49.132;8.920;2024-03-08T01:55:54;99267.28;;;0.82;91.98
83200;BME280;73092;49.132;8.920;2024-03-08T01:58:22;99274.13;;;0.77;93.08
83200;BME280;73092;49.132;8.920;2024-03-08T02:00:48;99272.47;;;0.85;93.18
83200;BME280;73092;49.132;8.920;2024-03-08T02:03:15;99260.31;;;0.78;92.99
83200;BME280;73092;49.132;8.920;2024-03-08T02:05:42;99258.63;;;0.80;93.16
83200;BME280;73092;49.132;8.920;2024-03-08T02:08:09;99251.75;;;0.82;93.53
83200;BME280;73092;49.132;8.920;2024-03-08T02:10:39;99250.00;;;0.81;92.88
83200;BME280;73092;49.132;8.920;2024-03-08T02:13:04;99243.91;;;0.74;92.57
83200;BME280;73092;49.132;8.920;2024-03-08T02:15:52;99252.53;;;0.70;93.63
83200;BME280;73092;49.132;8.920;2024-03-08T02:18:18;99234.38;;;0.68;92.96
83200;BME280;73092;49.132;8.920;2024-03-08T02:20:46;99244.72;;;0.65;93.31
83200;BME280;73092;49.132;8.920;2024-03-08T02:23:13;99230.91;;;0.63;92.86
83200;BME280;73092;49.132;8.920;2024-03-08T02:25:39;99241.19;;;0.54;92.77
83200;BME280;73092;49.132;8.920;2024-03-08T02:28:04;99229.06;;;0.50;93.53
83200;BME280;73092;49.132;8.920;2024-03-08T02:30:30;99229.09;;;0.52;93.97
83200;BME280;73092;49.132;8.920;2024-03-08T02:32:55;99227.34;;;0.49;93.47
83200;BME280;73092;49.132;8.920;2024-03-08T02:35:21;99223.81;;;0.38;93.90
83200;BME280;73092;49.132;8.920;2024-03-08T02:37:46;99218.56;;;0.29;94.44
83200;BME280;73092;49.132;8.920;2024-03-08T02:40:13;99223.81;;;0.35;95.42
83200;BME280;73092;49.132;8.920;2024-03-08T02:42:38;99218.56;;;0.26;94.16
83200;BME280;73092;49.132;8.920;2024-03-08T02:45:04;99216.81;;;0.23;96.08
83200;BME280;73092;49.132;8.920;2024-03-08T02:47:31;99207.28;;;0.19;94.71
83200;BME280;73092;49.132;8.920;2024-03-08T02:49:56;99213.28;;;0.15;95.95
83200;BME280;73092;49.132;8.920;2024-03-08T02:52:23;99212.34;;;0.08;95.20
83200;BME280;73092;49.132;8.920;2024-03-08T02:54:48;99214.06;;;0.08;96.23
83200;BME280;73092;49.132;8.920;2024-03-08T02:57:15;99202.84;;;0.04;95.67
83200;BME280;73092;49.132;8.920;2024-03-08T02:59:41;99202.81;;;0.01;96.33
83200;BME280;73092;49.132;8.920;2024-03-08T03:02:09;99201.09;;;0.00;95.81
83200;BME280;73092;49.132;8.920;2024-03-08T03:04:35;99198.47;;;-0.03;96.91
83200;BME280;73092;49.132;8.920;2024-03-08T03:07:01;99203.66;;;-0.02;96.33
83200;BME280;73092;49.132;8.920;2024-03-08T03:09:28;99192.47;;;0.01;96.32
83200;BME280;73092;49.132;8.920;2024-03-08T03:11:56;99185.56;;;-0.03;97.02
83200;BME280;73092;49.132;8.920;2024-03-08T03:14:22;99190.63;;;-0.11;96.83
83200;BME280;73092;49.132;8.920;2024-03-08T03:16:47;99189.75;;;-0.14;96.60
83200;BME280;73092;49.132;8.920;2024-03-08T03:19:13;99192.31;;;-0.17;97.58
83200;BME280;73092;49.132;8.920;2024-03-08T03:21:38;99193.13;;;-0.20;97.05
83200;BME280;73092;49.132;8.920;2024-03-08T03:24:04;99199.09;;;-0.26;97.75
83200;BME280;73092;49.132;8.920;2024-03-08T03:26:37;99187.91;;;-0.26;97.53
83200;BME280;73092;49.132;8.920;2024-03-08T03:29:06;99189.59;;;-0.30;97.63
83200;BME280;73092;49.132;8.920;2024-03-08T03:31:33;99195.56;;;-0.37;97.76
83200;BME280;73092;49.132;8.920;2024-03-08T03:33:59;99191.22;;;-0.39;97.48
83200;BME280;73092;49.132;8.920;2024-03-08T03:36:27;99181.78;;;-0.36;98.21
83200;BME280;73092;49.132;8.920;2024-03-08T03:38:53;99174.88;;;-0.37;98.26
83200;BME280;73092;49.132;8.920;2024-03-08T03:41:30;99176.59;;;-0.36;98.82
83200;BME280;73092;49.132;8.920;2024-03-08T03:43:55;99180.16;;;-0.28;98.42
83200;BME280;73092;49.132;8.920;2024-03-08T03:46:22;99175.03;;;-0.21;97.55
83200;BME280;73092;49.132;8.920;2024-03-08T03:48:47;99165.53;;;-0.24;96.90
83200;BME280;73092;49.132;8.920;2024-03-08T03:51:12;99169.88;;;-0.21;97.90
83200;BME280;73092;49.132;8.920;2024-03-08T03:53:40;99171.59;;;-0.20;97.61
83200;BME280;73092;49.132;8.920;2024-03-08T03:56:06;99163.03;;;-0.16;96.94
83200;BME280;73092;49.132;8.920;2024-03-08T03:58:32;99163.06;;;-0.15;96.72
83200;BME280;73092;49.132;8.920;2024-03-08T04:00:59;99157.00;;;-0.18;97.80
83200;BME280;73092;49.132;8.920;2024-03-08T04:03:24;99170.75;;;-0.21;97.12
83200;BME280;73092;49.132;8.920;2024-03-08T04:05:50;99164.81;;;-0.12;97.37
83200;BME280;73092;49.132;8.920;2024-03-08T04:08:16;99159.59;;;-0.15;96.53
83200;BME280;73092;49.132;8.920;2024-03-08T04:10:42;99157.81;;;-0.19;96.25
83200;BME280;73092;49.132;8.920;2024-03-08T04:13:07;99162.09;;;-0.23;97.85
83200;BME280;73092;49.132;8.920;2024-03-08T04:15:35;99166.41;;;-0.24;96.97
83200;BME280;73092;49.132;8.920;2024-03-08T04:18:01;99165.53;;;-0.22;97.02
83200;BME280;73092;49.132;8.920;2024-03-08T04:20:27;99151.78;;;-0.25;97.58
83200;BME280;73092;49.132;8.920;2024-03-08T04:22:52;99154.41;;;-0.18;97.37
83200;BME280;73092;49.132;8.920;2024-03-08T04:25:20;99150.88;;;-0.27;98.39
83200;BME280;73092;49.132;8.920;2024-03-08T04:27:45;99147.41;;;-0.29;97.55
83200;BME280;73092;49.132;8.920;2024-03-08T04:30:12;99155.97;;;-0.33;98.49
83200;BME280;73092;49.132;8.920;2024-03-08T04:32:37;99149.84;;;-0.41;98.23
83200;BME280;73092;49.132;8.920;2024-03-08T04:35:03;99143.03;;;-0.36;98.01
83200;BME280;73092;49.132;8.920;2024-03-08T04:37:29;99146.56;;;-0.28;98.77
83200;BME280;73092;49.132;8.920;2024-03-08T04:39:58;99145.72;;;-0.27;97.68
83200;BME280;73092;49.132;8.920;2024-03-08T04:42:23;99141.41;;;-0.26;97.18
83200;BME280;73092;49.132;8.920;2024-03-08T04:44:50;99137.06;;;-0.29;98.49
83200;BME280;73092;49.132;8.920;2024-03-08T04:47:15;99131.84;;;-0.35;97.74
83200;BME280;73092;49.132;8.920;2024-03-08T04:49:43;99128.41;;;-0.37;98.15
83200;BME280;73092;49.132;8.920;2024-03-08T04:52:08;99130.97;;;-0.35;98.90
83200;BME280;73092;49.132;8.920;2024-03-08T04:54:34;99136.94;;;-0.41;99.20
83200;BME280;73092;49.132;8.920;2024-03-08T04:56:59;99136.06;;;-0.46;99.19
83200;BME280;73092;49.132;8.920;2024-03-08T04:59:26;99136.03;;;-0.49;98.88
83200;BME280;73092;49.132;8.920;2024-03-08T05:01:52;99133.50;;;-0.43;98.67
83200;BME280;73092;49.132;8.920;2024-03-08T05:04:17;99124.03;;;-0.42;98.34
83200;BME280;73092;49.132;8.920;2024-03-08T05:06:42;99123.19;;;-0.43;99.65
83200;BME280;73092;49.132;8.920;2024-03-08T05:09:08;99126.59;;;-0.44;98.47
83200;BME280;73092;49.132;8.920;2024-03-08T05:11:41;99124.78;;;-0.54;98.62
83200;BME280;73092;49.132;8.920;2024-03-08T05:14:07;99124.81;;;-0.51;100.00
83200;BME280;73092;49.132;8.920;2024-03-08T05:16:32;99130.00;;;-0.48;99.32
83200;BME280;73092;49.132;8.920;2024-03-08T05:18:57;99128.25;;;-0.51;99.25
83200;BME280;73092;49.132;8.920;2024-03-08T05:21:23;99126.59;;;-0.44;99.33
83200;BME280;73092;49.132;8.920;2024-03-08T05:23:48;99123.13;;;-0.49;99.32
83200;BME280;73092;49.132;8.920;2024-03-08T05:26:15;99120.53;;;-0.49;99.69
83200;BME280;73092;49.132;8.920;2024-03-08T05:28:41;99111.06;;;-0.50;99.47
83200;BME280;73092;49.132;8.920;2024-03-08T05:31:06;99112.81;;;-0.46;99.68
83200;BME280;73092;49.132;8.920;2024-03-08T05:33:32;99112.78;;;-0.49;99.16
83200;BME280;73092;49.132;8.920;2024-03-08T05:35:59;99112.75;;;-0.52;98.87
83200;BME280;73092;49.132;8.920;2024-03-08T05:38:25;99107.53;;;-0.58;99.40
83200;BME280;73092;49.132;8.920;2024-03-08T05:40:51;99109.19;;;-0.63;99.97
83200;BME280;73092;49.132;8.920;2024-03-08T05:43:17;99109.25;;;-0.59;100.00
83200;BME280;73092;49.132;8.920;2024-03-08T05:45:44;99104.09;;;-0.57;100.00
83200;BME280;73092;49.132;8.920;2024-03-08T05:48:10;99104.09;;;-0.57;99.59
83200;BME280;73092;49.132;8.920;2024-03-08T05:50:37;99111.00;;;-0.56;99.68
83200;BME280;73092;49.132;8.920;2024-03-08T05:53:04;99102.38;;;-0.58;99.94
83200;BME280;73092;49.132;8.920;2024-03-08T05:55:32;99105.78;;;-0.62;99.69
83200;BME280;73092;49.132;8.920;2024-03-08T05:58:01;99104.06;;;-0.60;100.00
83200;BME280;73092;49.132;8.920;2024-03-08T06:00:26;99102.38;;;-0.58;100.00
83200;BME280;73092;49.132;8.920;2024-03-08T06:02:52;99093.72;;;-0.60;100.00
83200;BME280;73092;49.132;8.920;2024-03-08T06:05:17;99093.72;;;-0.60;100.00
83200;BME280;73092;49.132;8.920;2024-03-08T06:07:43;99104.97;;;-0.55;100.00
83200;BME280;73092;49.132;8.920;2024-03-08T06:10:09;99092.06;;;-0.55;99.93
83200;BME280;73092;49.132;8.920;2024-03-08T06:12:38;99100.75;;;-0.50;99.82
83200;BME280;73092;49.132;8.920;2024-03-08T06:15:07;99092.13;;;-0.49;99.55
83200;BME280;73092;49.132;8.920;2024-03-08T06:17:34;99085.25;;;-0.50;99.50
83200;BME280;73092;49.132;8.920;2024-03-08T06:20:00;99094.72;;;-0.48;99.88
83200;BME280;73092;49.132;8.920;2024-03-08T06:22:25;99095.56;;;-0.47;99.29
83200;BME280;73092;49.132;8.920;2024-03-08T06:24:50;99095.66;;;-0.38;99.53
83200;BME280;73092;49.132;8.920;2024-03-08T06:27:16;99091.56;;;-0.17;99.52
83200;BME280;73092;49.132;8.920;2024-03-08T06:29:42;99089.25;;;0.19;96.63
83200;BME280;73092;49.132;8.920;2024-03-08T06:32:08;99098.06;;;0.51;95.37
83200;BME280;73092;49.132;8.920;2024-03-08T06:34:33;99093.03;;;0.80;93.10
83200;BME280;73092;49.132;8.920;2024-03-08T06:37:01;99092.28;;;1.04;91.72
83200;BME280;73092;49.132;8.920;2024-03-08T06:39:27;99086.25;;;1.19;90.42
83200;BME280;73092;49.132;8.920;2024-03-08T06:41:56;99101.84;;;1.34;89.39
83200;BME280;73092;49.132;8.920;2024-03-08T06:44:22;99100.97;;;1.30;89.61
83200;BME280;73092;49.132;8.920;2024-03-08T06:46:47;99092.38;;;1.39;88.91
83200;BME280;73092;49.132;8.920;2024-03-08T06:49:13;99095.00;;;1.57;88.45
83200;BME280;73092;49.132;8.920;2024-03-08T06:51:38;99095.88;;;1.64;86.83
83200;BME280;73092;49.132;8.920;2024-03-08T06:54:06;99098.41;;;1.50;87.18
83200;BME280;73092;49.132;8.920;2024-03-08T06:56:34;99102.75;;;1.51;88.36
83200;BME280;73092;49.132;8.920;2024-03-08T06:58:59;99099.34;;;1.80;87.09
83200;BME280;73092;49.132;8.920;2024-03-08T07:01:25;99100.22;;;1.76;86.83
83200;BME280;73092;49.132;8.920;2024-03-08T07:03:50;99098.47;;;1.95;85.83
83200;BME280;73092;49.132;8.920;2024-03-08T07:06:18;99091.50;;;1.40;87.91
83200;BME280;73092;49.132;8.920;2024-03-08T07:08:44;99100.03;;;1.05;89.50
83200;BME280;73092;49.132;8.920;2024-03-08T07:11:11;99099.09;;;0.83;90.69
83200;BME280;73092;49.132;8.920;2024-03-08T07:13:37;99096.47;;;0.73;92.28
83200;BME280;73092;49.132;8.920;2024-03-08T07:16:04;99101.59;;;0.71;92.81
83200;BME280;73092;49.132;8.920;2024-03-08T07:18:30;99093.91;;;0.79;93.02
83200;BME280;73092;49.132;8.920;2024-03-08T07:20:56;99089.56;;;0.75;93.78
83200;BME280;73092;49.132;8.920;2024-03-08T07:23:22;99094.72;;;0.75;92.39
83200;BME280;73092;49.132;8.920;2024-03-08T07:26:06;99089.56;;;0.78;93.69
83200;BME280;73092;49.132;8.920;2024-03-08T07:28:31;99086.13;;;0.79;92.50
83200;BME280;73092;49.132;8.920;2024-03-08T07:30:58;99085.28;;;0.83;93.46
83200;BME280;73092;49.132;8.920;2024-03-08T07:33:42;99081.00;;;0.88;93.42
83200;BME280;73092;49.132;8.920;2024-03-08T07:36:07;99086.22;;;0.94;92.50
83200;BME280;73092;49.132;8.920;2024-03-08T07:38:33;99081.06;;;1.08;92.31
83200;BME280;73092;49.132;8.920;2024-03-08T07:40:59;99079.34;;;1.14;92.01
83200;BME280;73092;49.132;8.920;2024-03-08T07:43:25;99071.63;;;1.27;91.43
83200;BME280;73092;49.132;8.920;2024-03-08T07:45:51;99076.84;;;1.42;91.68
83200;BME280;73092;49.132;8.920;2024-03-08T07:48:18;99066.50;;;1.57;90.33
83200;BME280;73092;49.132;8.920;2024-03-08T07:50:44;99067.34;;;1.66;90.00
83200;BME280;73092;49.132;8.920;2024-03-08T07:53:10;99063.94;;;1.82;89.85
83200;BME280;73092;49.132;8.920;2024-03-08T07:55:36;99063.91;;;1.91;89.41
83200;BME280;73092;49.132;8.920;2024-03-08T07:58:02;99067.34;;;2.05;88.64
83200;BME280;73092;49.132;8.920;2024-03-08T08:00:28;99070.81;;;2.26;88.25
83200;BME280;73092;49.132;8.920;2024-03-08T08:02:55;99064.72;;;2.36;87.94
83200;BME280;73092;49.132;8.920;2024-03-08T08:05:21;99063.00;;;2.37;86.19
83200;BME280;73092;49.132;8.920;2024-03-08T08:07:46;99055.19;;;2.43;86.63
83200;BME280;73092;49.132;8.920;2024-03-08T08:10:12;99065.56;;;2.49;86.50
83200;BME280;73092;49.132;8.920;2024-03-08T08:12:44;99056.91;;;2.45;85.69
83200;BME280;73092;49.132;8.920;2024-03-08T08:15:09;99060.34;;;2.50;85.24
83200;BME280;73092;49.132;8.920;2024-03-08T08:17:34;99062.06;;;2.61;85.76
83200;BME280;73092;49.132;8.920;2024-03-08T08:20:00;99056.91;;;2.54;84.93
83200;BME280;73092;49.132;8.920;2024-03-08T08:22:25;99061.16;;;2.63;84.92
83200;BME280;73092;49.132;8.920;2024-03-08T08:24:51;99057.66;;;2.84;84.71
83200;BME280;73092;49.132;8.920;2024-03-08T08:27:17;99049.84;;;2.90;84.31
83200;BME280;73092;49.132;8.920;2024-03-08T08:29:42;99049.78;;;2.99;83.26
83200;BME280;73092;49.132;8.920;2024-03-08T08:32:08;99049.75;;;3.09;83.50
83200;BME280;73092;49.132;8.920;2024-03-08T08:34:34;99048.81;;;3.23;83.28
83200;BME280;73092;49.132;8.920;2024-03-08T08:36:59;99048.78;;;3.30;82.17
83200;BME280;73092;49.132;8.920;2024-03-08T08:39:25;99053.03;;;3.38;82.30
83200;BME280;73092;49.132;8.920;2024-03-08T08:41:51;99044.41;;;3.33;82.50
83200;BME280;73092;49.132;8.920;2024-03-08T08:44:17;99039.28;;;3.24;81.92
83200;BME280;73092;49.132;8.920;2024-03-08T08:46:42;99047.94;;;3.23;81.28
83200;BME280;73092;49.132;8.920;2024-03-08T08:49:07;99038.38;;;3.28;81.32
83200;BME280;73092;49.132;8.920;2024-03-08T08:51:35;99042.66;;;3.35;80.88
83200;BME280;73092;49.132;8.920;2024-03-08T08:54:02;99039.16;;;3.42;80.65
83200;BME280;73092;49.132;8.920;2024-03-08T08:56:27;99023.59;;;3.39;80.26
83200;BME280;73092;49.132;8.920;2024-03-08T08:58:54;99017.56;;;3.31;79.83
83200;BME280;73092;49.132;8.920;2024-03-08T09:01:20;99027.13;;;3.32;79.92
83200;BME280;73092;49.132;8.920;2024-03-08T09:03:45;99024.50;;;3.34;79.86
83200;BME280;73092;49.132;8.920;2024-03-08T09:06:15;99026.97;;;3.47;79.74
83200;BME280;73092;49.132;8.920;2024-03-08T09:08:41;99020.84;;;3.61;79.66
83200;BME280;73092;49.132;8.920;2024-03-08T09:11:07;99023.38;;;3.67;79.53
83200;BME280;73092;49.132;8.920;2024-03-08T09:13:32;99021.53;;;3.78;79.07
83200;BME280;73092;49.132;8.920;2024-03-08T09:15:59;99023.22;;;3.85;78.45
83200;BME280;73092;49.132;8.920;2024-03-08T09:18:25;99009.53;;;3.65;78.35
83200;BME280;73092;49.132;8.920;2024-03-08T09:20:50;99014.66;;;3.74;78.71
83200;BME280;73092;49.132;8.920;2024-03-08T09:23:19;99014.50;;;3.91;78.67
83200;BME280;73092;49.132;8.920;2024-03-08T09:25:44;99011.13;;;3.81;77.90
83200;BME280;73092;49.132;8.920;2024-03-08T09:28:10;99011.00;;;3.97;78.11
83200;BME280;73092;49.132;8.920;2024-03-08T09:30:37;99011.00;;;3.97;76.95
83200;BME280;73092;49.132;8.920;2024-03-08T09:33:04;99004.19;;;3.83;77.45
83200;BME280;73092;49.132;8.920;2024-03-08T09:35:29;98995.56;;;3.78;77.90
83200;BME280;73092;49.132;8.920;2024-03-08T09:37:55;98993.00;;;3.72;77.85
83200;BME280;73092;49.132;8.920;2024-03-08T09:40:21;98998.06;;;3.87;77.82
83200;BME280;73092;49.132;8.920;2024-03-08T09:42:48;98997.75;;;4.20;78.19
83200;BME280;73092;49.132;8.920;2024-03-08T09:45:14;98991.72;;;4.16;77.26
83200;BME280;73092;49.132;8.920;2024-03-08T09:47:43;98991.53;;;4.34;77.02
83200;BME280;73092;49.132;8.920;2024-03-08T09:50:09;98988.72;;;4.53;76.60
83200;BME280;73092;49.132;8.920;2024-03-08T09:52:41;98976.72;;;4.38;75.60
83200;BME280;73092;49.132;8.920;2024-03-08T09:55:09;98989.84;;;4.30;75.28
83200;BME280;73092;49.132;8.920;2024-03-08T09:57:36;98990.09;;;4.06;75.95
83200;BME280;73092;49.132;8.920;2024-03-08T10:00:03;98977.75;;;4.26;76.36
83200;BME280;73092;49.132;8.920;2024-03-08T10:02:45;98985.47;;;4.34;75.89
83200;BME280;73092;49.132;8.920;2024-03-08T10:05:12;98985.41;;;4.35;75.32
83200;BME280;73092;49.132;8.920;2024-03-08T10:07:37;98974.94;;;4.43;74.73
83200;BME280;73092;49.132;8.920;2024-03-08T10:10:03;98974.72;;;4.61;75.77
83200;BME280;73092;49.132;8.920;2024-03-08T10:12:29;98975.34;;;4.80;74.66
83200;BME280;73092;49.132;8.920;2024-03-08T10:14:55;98967.00;;;4.54;73.63
83200;BME280;73092;49.132;8.920;2024-03-08T10:17:21;98975.59;;;4.62;74.75
83200;BME280;73092;49.132;8.920;2024-03-08T10:19:50;98971.56;;;4.35;74.75
83200;BME280;73092;49.132;8.920;2024-03-08T10:22:16;98968.66;;;4.61;75.65
83200;BME280;73092;49.132;8.920;2024-03-08T10:24:45;98954.88;;;4.53;74.67
83200;BME280;73092;49.132;8.920;2024-03-08T10:27:11;98965.19;;;4.59;74.38
83200;BME280;73092;49.132;8.920;2024-03-08T10:29:36;98964.38;;;4.54;73.93
83200;BME280;73092;49.132;8.920;2024-03-08T10:32:03;98958.47;;;4.43;74.04
83200;BME280;73092;49.132;8.920;2024-03-08T10:34:30;98958.31;;;4.55;74.22
83200;BME280;73092;49.132;8.920;2024-03-08T10:37:03;98958.81;;;4.83;74.50
83200;BME280;73092;49.132;8.920;2024-03-08T10:39:34;98946.50;;;4.94;73.64
83200;BME280;73092;49.132;8.920;2024-03-08T10:42:03;98947.94;;;5.15;73.84
83200;BME280;73092;49.132;8.920;2024-03-08T10:47:10;98947.22;;;5.04;73.50
83200;BME280;73092;49.132;8.920;2024-03-08T10:49:45;98940.38;;;4.97;73.50
83200;BME280;73092;49.132;8.920;2024-03-08T10:52:16;98940.47;;;4.92;73.59
83200;BME280;73092;49.132;8.920;2024-03-08T10:54:45;98935.19;;;4.97;73.25
83200;BME280;73092;49.132;8.920;2024-03-08T10:57:12;98936.78;;;5.04;72.80
83200;BME280;73092;49.132;8.920;2024-03-08T10:59:38;98940.47;;;4.91;72.63
83200;BME280;73092;49.132;8.920;2024-03-08T11:02:04;98942.09;;;4.98;73.57
83200;BME280;73092;49.132;8.920;2024-03-08T11:04:31;98928.25;;;4.96;73.39
83200;BME280;73092;49.132;8.920;2024-03-08T11:07:02;98927.56;;;4.83;73.80
83200;BME280;73092;49.132;8.920;2024-03-08T11:09:34;98920.06;;;4.60;74.52
83200;BME280;73092;49.132;8.920;2024-03-08T11:14:46;98917.53;;;4.54;76.01
83200;BME280;73092;49.132;8.920;2024-03-08T11:17:14;98912.28;;;4.58;75.68
83200;BME280;73092;49.132;8.920;2024-03-08T11:19:46;98916.72;;;4.52;75.80
83200;BME280;73092;49.132;8.920;2024-03-08T11:22:23;98899.41;;;4.48;75.78
83200;BME280;73092;49.132;8.920;2024-03-08T11:24:52;98894.22;;;4.45;76.13
83200;BME280;73092;49.132;8.920;2024-03-08T11:27:17;98890.88;;;4.36;76.06
83200;BME280;73092;49.132;8.920;2024-03-08T11:29:43;98895.16;;;4.40;76.41
83200;BME280;73092;49.132;8.920;2024-03-08T11:32:10;98885.47;;;4.52;76.98
83200;BME280;73092;49.132;8.920;2024-03-08T11:34:37;98895.66;;;4.69;76.10
83200;BME280;73092;49.132;8.920;2024-03-08T11:37:05;98891.16;;;4.80;74.62
83200;BME280;73092;49.132;8.920;2024-03-08T11:39:35;98878.63;;;5.05;74.96
83200;BME280;73092;49.132;8.920;2024-03-08T11:42:02;98884.75;;;5.01;73.79
83200;BME280;73092;49.132;8.920;2024-03-08T11:44:27;98878.53;;;5.09;74.38
83200;BME280;73092;49.132;8.920;2024-03-08T11:46:53;98876.47;;;5.28;74.56
83200;BME280;73092;49.132;8.920;2024-03-08T11:49:19;98876.22;;;5.45;73.38
83200;BME280;73092;49.132;8.920;2024-03-08T11:51:44;98860.91;;;5.73;73.11
83200;BME280;73092;49.132;8.920;2024-03-08T11:54:12;98862.34;;;5.90;72.29
83200;BME280;73092;49.132;8.920;2024-03-08T11:56:38;98855.19;;;6.01;72.41
83200;BME280;73092;49.132;8.920;2024-03-08T11:59:03;98856.16;;;5.95;70.90
83200;BME280;73092;49.132;8.920;2024-03-08T12:01:30;98852.63;;;5.98;70.99
83200;BME280;73092;49.132;8.920;2024-03-08T12:03:57;98853.22;;;6.12;71.42
83200;BME280;73092;49.132;8.920;2024-03-08T12:06:25;98835.81;;;6.14;70.90
83200;BME280;73092;49.132;8.920;2024-03-08T12:08:51;98835.50;;;6.26;71.31
83200;BME280;73092;49.132;8.920;2024-03-08T12:11:20;98836.03;;;6.44;70.52
83200;BME280;73092;49.132;8.920;2024-03-08T12:13:49;98827.91;;;6.56;70.46
83200;BME280;73092;49.132;8.920;2024-03-08T12:16:17;98817.47;;;6.56;69.37
83200;BME280;73092;49.132;8.920;2024-03-08T12:18:47;98812.94;;;6.64;69.96
83200;BME280;73092;49.132;8.920;2024-03-08T12:21:13;98810.22;;;6.67;69.81
83200;BME280;73092;49.132;8.920;2024-03-08T12:23:42;98801.00;;;6.90;69.84
83200;BME280;73092;49.132;8.920;2024-03-08T12:26:16;98801.72;;;6.95;69.40
83200;BME280;73092;49.132;8.920;2024-03-08T12:28:44;98794.28;;;7.14;70.63
83200;BME280;73092;49.132;8.920;2024-03-08T12:31:11;98794.13;;;7.20;69.67
83200;BME280;73092;49.132;8.920;2024-03-08T12:33:53;98785.94;;;7.00;68.27
83200;BME280;73092;49.132;8.920;2024-03-08T12:36:20;98785.09;;;6.99;68.53
83200;BME280;73092;49.132;8.920;2024-03-08T12:38:47;98779.72;;;7.05;67.98
83200;BME280;73092;49.132;8.920;2024-03-08T12:41:16;98773.44;;;7.11;68.73
83200;BME280;73092;49.132;8.920;2024-03-08T12:43:43;98770.41;;;7.28;68.98
83200;BME280;73092;49.132;8.920;2024-03-08T12:46:20;98769.88;;;7.15;68.25
83200;BME280;73092;49.132;8.920;2024-03-08T12:48:46;98758.13;;;7.30;68.40
83200;BME280;73092;49.132;8.920;2024-03-08T12:51:15;98764.69;;;7.46;68.81
83200;BME280;73092;49.132;8.920;2024-03-08T12:53:41;98755.50;;;7.62;69.68
83200;BME280;73092;49.132;8.920;2024-03-08T12:56:12;98749.50;;;7.59;67.59
83200;BME280;73092;49.132;8.920;2024-03-08T12:58:38;98748.53;;;7.61;68.25
83200;BME280;73092;49.132;8.920;2024-03-08T13:01:04;98741.78;;;7.54;67.07
83200;BME280;73092;49.132;8.920;2024-03-08T13:03:32;98728.53;;;7.60;67.67
83200;BME280;73092;49.132;8.920;2024-03-08T13:05:59;98719.59;;;7.68;67.26
83200;BME280;73092;49.132;8.920;2024-03-08T13:08:25;98729.25;;;7.95;66.92
83200;BME280;73092;49.132;8.920;2024-03-08T13:10:53;98720.66;;;7.92;65.34